createdAt,value
2017-09-17T00:00:20.506Z,0
2017-09-17T00:01:20.522Z,0
2017-09-17T00:02:20.541Z,0
2017-09-17T00:03:20.882Z,0
2017-09-17T00:04:20.139Z,0
2017-09-17T00:05:20.599Z,0
2017-09-17T00:06:20.941Z,0
2017-09-17T00:07:20.634Z,0
2017-09-17T00:08:21.153Z,0
2017-09-17T00:09:20.711Z,0
2017-09-17T00:10:20.364Z,0
2017-09-17T00:11:20.703Z,0
2017-09-17T00:12:20.727Z,0
2017-09-17T00:13:20.425Z,0
2017-09-17T00:14:21.178Z,0
2017-09-17T00:15:21.504Z,0
2017-09-17T00:16:20.801Z,0
2017-09-17T00:17:21.135Z,0
2017-09-17T00:18:21.183Z,0
2017-09-17T00:19:21.172Z,0
2017-09-17T00:20:20.228Z,0
2017-09-17T00:21:21.635Z,0
2017-09-17T00:22:21.228Z,0
2017-09-17T00:23:21.350Z,0
2017-09-17T00:24:21.342Z,0
2017-09-17T00:25:20.634Z,0
2017-09-17T00:26:21.324Z,0
2017-09-17T00:27:20.999Z,0
2017-09-17T00:28:21.106Z,0
2017-09-17T00:29:21.131Z,0
2017-09-17T00:30:21.372Z,0
2017-09-17T00:31:21.396Z,0
2017-09-17T00:32:21.413Z,0
2017-09-17T00:33:21.438Z,0
2017-09-17T00:34:21.764Z,0
2017-09-17T00:35:20.821Z,0
2017-09-17T00:36:21.785Z,0
2017-09-17T00:37:21.659Z,0
2017-09-17T00:38:20.999Z,0
2017-09-17T00:39:21.639Z,0
2017-09-17T00:40:21.330Z,0
2017-09-17T00:41:20.830Z,0
2017-09-17T00:42:21.477Z,0
2017-09-17T00:43:21.457Z,0
2017-09-17T00:44:21.302Z,0
2017-09-17T00:45:21.139Z,0
2017-09-17T00:46:21.470Z,0
2017-09-17T00:47:21.157Z,0
2017-09-17T00:48:21.473Z,0
2017-09-17T00:49:21.936Z,0
2017-09-17T00:50:21.934Z,0
2017-09-17T00:51:21.228Z,0
2017-09-17T00:52:21.528Z,0
2017-09-17T00:53:21.216Z,0
2017-09-17T00:54:22.266Z,0
2017-09-17T00:55:21.508Z,0
2017-09-17T00:56:21.936Z,0
2017-09-17T00:57:22.272Z,0
2017-09-17T00:58:21.570Z,0
2017-09-17T00:59:21.911Z,0
2017-09-17T01:00:21.287Z,0
2017-09-17T01:01:21.304Z,0
2017-09-17T01:02:21.986Z,0
2017-09-17T01:03:21.654Z,0
2017-09-17T01:04:21.358Z,0
2017-09-17T01:05:22.337Z,0
2017-09-17T01:06:22.053Z,0
2017-09-17T01:07:22.051Z,0
2017-09-17T01:08:21.424Z,0
2017-09-17T01:09:22.090Z,0
2017-09-17T01:10:22.098Z,0
2017-09-17T01:11:21.800Z,0
2017-09-17T01:12:21.826Z,0
2017-09-17T01:13:21.518Z,0
2017-09-17T01:14:21.863Z,0
2017-09-17T01:15:21.560Z,0
2017-09-17T01:16:22.549Z,0
2017-09-17T01:17:22.228Z,0
2017-09-17T01:18:21.607Z,0
2017-09-17T01:19:22.270Z,0
2017-09-17T01:20:22.303Z,0
2017-09-17T01:21:21.990Z,0
2017-09-17T01:22:21.997Z,0
2017-09-17T01:23:22.355Z,0
2017-09-17T01:24:22.359Z,0
2017-09-17T01:25:22.048Z,0
2017-09-17T01:26:22.076Z,0
2017-09-17T01:27:22.404Z,0
2017-09-17T01:28:22.438Z,0
2017-09-17T01:29:22.454Z,0
2017-09-17T01:30:21.843Z,0
2017-09-17T01:31:22.169Z,0
2017-09-17T01:32:22.504Z,0
2017-09-17T01:33:22.519Z,0
2017-09-17T01:34:22.215Z,0
2017-09-17T01:35:22.874Z,0
2017-09-17T01:36:22.576Z,0
2017-09-17T01:37:21.938Z,0
2017-09-17T01:38:22.601Z,0
2017-09-17T01:39:22.960Z,0
2017-09-17T01:40:22.995Z,0
2017-09-17T01:41:22.670Z,0
2017-09-17T01:42:22.685Z,0
2017-09-17T01:43:22.374Z,0
2017-09-17T01:44:22.077Z,0
2017-09-17T01:45:22.093Z,0
2017-09-17T01:46:22.432Z,0
2017-09-17T01:47:22.450Z,0
2017-09-17T01:48:22.779Z,0
2017-09-17T01:49:22.166Z,0
2017-09-17T01:50:22.503Z,0
2017-09-17T01:51:22.534Z,0
2017-09-17T01:52:22.606Z,0
2017-09-17T01:53:22.228Z,0
2017-09-17T01:54:22.567Z,0
2017-09-17T01:55:23.024Z,0
2017-09-17T01:56:23.342Z,0
2017-09-17T01:57:23.421Z,0
2017-09-17T01:58:23.089Z,0
2017-09-17T01:59:22.661Z,0
2017-09-17T02:00:23.333Z,0
2017-09-17T02:01:23.070Z,0
2017-09-17T02:02:23.067Z,0
2017-09-17T02:03:22.729Z,0
2017-09-17T02:04:23.387Z,0
2017-09-17T02:05:22.885Z,0
2017-09-17T02:06:23.183Z,0
2017-09-17T02:07:23.195Z,0
2017-09-17T02:08:22.909Z,0
2017-09-17T02:09:23.209Z,0
2017-09-17T02:10:23.207Z,0
2017-09-17T02:11:22.874Z,0
2017-09-17T02:12:22.251Z,0
2017-09-17T02:13:23.249Z,0
2017-09-17T02:14:22.915Z,0
2017-09-17T02:15:23.382Z,0
2017-09-17T02:16:23.068Z,0
2017-09-17T02:17:23.618Z,0
2017-09-17T02:18:22.678Z,0
2017-09-17T02:19:23.339Z,0
2017-09-17T02:20:22.914Z,0
2017-09-17T02:21:23.379Z,0
2017-09-17T02:22:23.071Z,0
2017-09-17T02:23:23.407Z,0
2017-09-17T02:24:23.192Z,0
2017-09-17T02:25:23.191Z,0
2017-09-17T02:26:22.918Z,0
2017-09-17T02:27:23.816Z,0
2017-09-17T02:28:23.174Z,0
2017-09-17T02:29:23.823Z,0
2017-09-17T02:30:22.549Z,0
2017-09-17T02:31:23.233Z,0
2017-09-17T02:32:23.299Z,0
2017-09-17T02:33:23.583Z,0
2017-09-17T02:34:22.637Z,0
2017-09-17T02:35:23.293Z,0
2017-09-17T02:36:22.994Z,0
2017-09-17T02:37:23.096Z,0
2017-09-17T02:38:24.007Z,0
2017-09-17T02:39:24.031Z,0
2017-09-17T02:40:23.122Z,0
2017-09-17T02:41:23.391Z,0
2017-09-17T02:42:23.405Z,0
2017-09-17T02:43:23.754Z,0
2017-09-17T02:44:23.761Z,0
2017-09-17T02:45:24.109Z,0
2017-09-17T02:46:23.806Z,0
2017-09-17T02:47:23.504Z,0
2017-09-17T02:48:24.181Z,0
2017-09-17T02:49:24.180Z,0
2017-09-17T02:50:23.868Z,0
2017-09-17T02:51:23.901Z,0
2017-09-17T02:52:23.601Z,0
2017-09-17T02:53:24.296Z,0
2017-09-17T02:54:24.252Z,0
2017-09-17T02:55:23.956Z,0
2017-09-17T02:56:23.969Z,0
2017-09-17T02:57:23.676Z,0
2017-09-17T02:58:23.692Z,0
2017-09-17T02:59:23.711Z,0
2017-09-17T03:00:24.049Z,0
2017-09-17T03:01:23.423Z,0
2017-09-17T03:02:24.075Z,0
2017-09-17T03:03:23.771Z,0
2017-09-17T03:04:23.467Z,0
2017-09-17T03:05:24.460Z,0
2017-09-17T03:06:23.501Z,0
2017-09-17T03:07:24.163Z,0
2017-09-17T03:08:24.198Z,0
2017-09-17T03:09:23.879Z,0
2017-09-17T03:10:23.589Z,0
2017-09-17T03:11:24.243Z,0
2017-09-17T03:12:23.616Z,0
2017-09-17T03:13:23.949Z,0
2017-09-17T03:14:23.983Z,0
2017-09-17T03:15:23.679Z,0
2017-09-17T03:16:24.000Z,0
2017-09-17T03:17:24.678Z,0
2017-09-17T03:18:24.371Z,0
2017-09-17T03:19:24.707Z,0
2017-09-17T03:20:24.739Z,0
2017-09-17T03:21:24.401Z,0
2017-09-17T03:22:24.107Z,0
2017-09-17T03:23:23.801Z,0
2017-09-17T03:24:24.141Z,0
2017-09-17T03:25:24.473Z,0
2017-09-17T03:26:23.844Z,0
2017-09-17T03:27:23.538Z,0
2017-09-17T03:28:24.206Z,0
2017-09-17T03:29:24.219Z,0
2017-09-17T03:30:24.696Z,0
2017-09-17T03:31:24.265Z,0
2017-09-17T03:32:23.954Z,0
2017-09-17T03:33:24.312Z,0
2017-09-17T03:34:24.980Z,0
2017-09-17T03:35:25.003Z,0
2017-09-17T03:36:24.675Z,0
2017-09-17T03:37:24.690Z,0
2017-09-17T03:38:24.811Z,0
2017-09-17T03:39:24.724Z,0
2017-09-17T03:40:24.751Z,0
2017-09-17T03:41:24.420Z,0
2017-09-17T03:42:24.804Z,0
2017-09-17T03:43:24.986Z,0
2017-09-17T03:44:24.848Z,0
2017-09-17T03:45:25.304Z,0
2017-09-17T03:46:24.525Z,0
2017-09-17T03:47:24.988Z,0
2017-09-17T03:48:25.309Z,0
2017-09-17T03:49:24.241Z,0
2017-09-17T03:50:25.254Z,0
2017-09-17T03:51:25.123Z,0
2017-09-17T03:52:24.619Z,0
2017-09-17T03:53:24.636Z,0
2017-09-17T03:54:24.650Z,0
2017-09-17T03:55:24.991Z,0
2017-09-17T03:56:24.676Z,0
2017-09-17T03:57:25.047Z,0
2017-09-17T03:58:24.720Z,0
2017-09-17T03:59:24.723Z,0
2017-09-17T04:00:25.402Z,0
2017-09-17T04:01:25.092Z,0
2017-09-17T04:02:25.435Z,0
2017-09-17T04:03:24.894Z,0
2017-09-17T04:04:25.329Z,0
2017-09-17T04:05:25.226Z,0
2017-09-17T04:06:25.220Z,0
2017-09-17T04:07:25.017Z,0
2017-09-17T04:08:25.618Z,0
2017-09-17T04:09:25.334Z,0
2017-09-17T04:10:25.560Z,0
2017-09-17T04:11:24.940Z,0
2017-09-17T04:12:25.280Z,0
2017-09-17T04:13:24.963Z,0
2017-09-17T04:14:25.101Z,0
2017-09-17T04:15:25.481Z,0
2017-09-17T04:16:25.111Z,0
2017-09-17T04:17:25.166Z,0
2017-09-17T04:18:25.063Z,0
2017-09-17T04:19:25.455Z,0
2017-09-17T04:20:25.125Z,0
2017-09-17T04:21:25.241Z,0
2017-09-17T04:22:25.454Z,0
2017-09-17T04:23:25.788Z,0
2017-09-17T04:24:24.514Z,0
2017-09-17T04:25:25.939Z,0
2017-09-17T04:26:25.528Z,0
2017-09-17T04:27:25.208Z,0
2017-09-17T04:28:25.233Z,0
2017-09-17T04:29:25.970Z,0
2017-09-17T04:30:25.254Z,0
2017-09-17T04:31:25.265Z,0
2017-09-17T04:32:25.652Z,0
2017-09-17T04:33:25.315Z,0
2017-09-17T04:34:25.658Z,0
2017-09-17T04:35:25.026Z,0
2017-09-17T04:36:25.684Z,0
2017-09-17T04:37:25.053Z,0
2017-09-17T04:38:26.041Z,0
2017-09-17T04:39:25.774Z,0
2017-09-17T04:40:25.436Z,0
2017-09-17T04:41:25.820Z,0
2017-09-17T04:42:25.127Z,0
2017-09-17T04:43:26.271Z,0
2017-09-17T04:44:25.169Z,0
2017-09-17T04:45:25.917Z,0
2017-09-17T04:46:25.954Z,0
2017-09-17T04:47:25.547Z,0
2017-09-17T04:48:25.982Z,0
2017-09-17T04:49:26.408Z,0
2017-09-17T04:50:25.589Z,0
2017-09-17T04:51:26.047Z,0
2017-09-17T04:52:26.054Z,0
2017-09-17T04:53:26.421Z,0
2017-09-17T04:54:25.981Z,0
2017-09-17T04:55:25.780Z,0
2017-09-17T04:56:26.110Z,0
2017-09-17T04:57:26.130Z,0
2017-09-17T04:58:25.961Z,0
2017-09-17T04:59:26.278Z,0
2017-09-17T05:00:25.964Z,0
2017-09-17T05:01:26.174Z,0
2017-09-17T05:02:26.436Z,0
2017-09-17T05:03:26.320Z,0
2017-09-17T05:04:25.511Z,0
2017-09-17T05:05:26.324Z,0
2017-09-17T05:06:25.535Z,0
2017-09-17T05:07:25.887Z,0
2017-09-17T05:08:25.903Z,0
2017-09-17T05:09:26.404Z,0
2017-09-17T05:10:26.258Z,0
2017-09-17T05:11:26.366Z,0
2017-09-17T05:12:26.048Z,0
2017-09-17T05:13:26.046Z,0
2017-09-17T05:14:26.419Z,0
2017-09-17T05:15:25.690Z,0
2017-09-17T05:16:26.030Z,0
2017-09-17T05:17:26.078Z,0
2017-09-17T05:18:26.380Z,0
2017-09-17T05:19:26.442Z,0
2017-09-17T05:20:26.732Z,0
2017-09-17T05:21:26.451Z,0
2017-09-17T05:22:26.126Z,0
2017-09-17T05:23:26.470Z,0
2017-09-17T05:24:25.896Z,0
2017-09-17T05:25:26.168Z,0
2017-09-17T05:26:26.198Z,0
2017-09-17T05:27:26.211Z,0
2017-09-17T05:28:25.900Z,0
2017-09-17T05:29:26.902Z,0
2017-09-17T05:30:26.584Z,0
2017-09-17T05:31:26.062Z,0
2017-09-17T05:32:26.302Z,0
2017-09-17T05:33:26.627Z,0
2017-09-17T05:34:26.333Z,0
2017-09-17T05:35:27.002Z,0
2017-09-17T05:36:26.084Z,0
2017-09-17T05:37:27.037Z,0
2017-09-17T05:38:26.397Z,0
2017-09-17T05:39:26.413Z,0
2017-09-17T05:40:26.748Z,0
2017-09-17T05:41:26.772Z,0
2017-09-17T05:42:26.786Z,0
2017-09-17T05:43:26.501Z,0
2017-09-17T05:44:26.539Z,0
2017-09-17T05:45:26.519Z,0
2017-09-17T05:46:26.528Z,0
2017-09-17T05:47:26.549Z,0
2017-09-17T05:48:26.880Z,0
2017-09-17T05:49:26.254Z,0
2017-09-17T05:50:26.592Z,0
2017-09-17T05:51:26.930Z,0
2017-09-17T05:52:26.315Z,0
2017-09-17T05:53:26.644Z,0
2017-09-17T05:54:27.341Z,0
2017-09-17T05:55:26.666Z,0
2017-09-17T05:56:26.365Z,0
2017-09-17T05:57:26.702Z,0
2017-09-17T05:58:26.719Z,0
2017-09-17T05:59:27.060Z,0
2017-09-17T06:00:26.752Z,0
2017-09-17T06:01:26.778Z,0
2017-09-17T06:02:26.799Z,0
2017-09-17T06:03:26.827Z,0
2017-09-17T06:04:26.849Z,0
2017-09-17T06:05:26.840Z,0
2017-09-17T06:06:26.558Z,0
2017-09-17T06:07:26.880Z,0
2017-09-17T06:08:26.890Z,0
2017-09-17T06:09:26.578Z,5
2017-09-17T06:10:27.293Z,0
2017-09-17T06:11:27.269Z,5
2017-09-17T06:12:26.623Z,5
2017-09-17T06:13:26.978Z,5
2017-09-17T06:14:26.991Z,5
2017-09-17T06:15:27.330Z,5
2017-09-17T06:16:27.065Z,5
2017-09-17T06:17:27.031Z,5
2017-09-17T06:18:27.369Z,5
2017-09-17T06:19:27.404Z,5
2017-09-17T06:20:27.088Z,5
2017-09-17T06:21:27.108Z,10
2017-09-17T06:22:27.114Z,10
2017-09-17T06:23:27.463Z,10
2017-09-17T06:24:27.166Z,10
2017-09-17T06:25:27.494Z,10
2017-09-17T06:26:27.620Z,10
2017-09-17T06:27:27.208Z,10
2017-09-17T06:28:27.541Z,5
2017-09-17T06:29:26.593Z,5
2017-09-17T06:30:27.318Z,5
2017-09-17T06:31:26.944Z,5
2017-09-17T06:32:26.961Z,5
2017-09-17T06:33:27.629Z,5
2017-09-17T06:34:27.314Z,5
2017-09-17T06:35:27.336Z,5
2017-09-17T06:36:26.705Z,5
2017-09-17T06:37:27.371Z,5
2017-09-17T06:38:27.388Z,5
2017-09-17T06:39:27.726Z,5
2017-09-17T06:40:27.759Z,5
2017-09-17T06:41:27.128Z,5
2017-09-17T06:42:27.781Z,5
2017-09-17T06:43:27.154Z,5
2017-09-17T06:44:27.810Z,5
2017-09-17T06:45:27.902Z,5
2017-09-17T06:46:27.900Z,5
2017-09-17T06:47:27.868Z,5
2017-09-17T06:48:27.551Z,5
2017-09-17T06:49:27.574Z,5
2017-09-17T06:50:27.260Z,5
2017-09-17T06:51:27.620Z,5
2017-09-17T06:52:28.038Z,5
2017-09-17T06:53:27.635Z,5
2017-09-17T06:54:28.192Z,5
2017-09-17T06:55:27.348Z,5
2017-09-17T06:56:27.690Z,5
2017-09-17T06:57:28.069Z,5
2017-09-17T06:58:28.039Z,5
2017-09-17T06:59:27.753Z,10
2017-09-17T07:00:28.143Z,10
2017-09-17T07:01:27.780Z,10
2017-09-17T07:02:27.459Z,10
2017-09-17T07:03:27.797Z,10
2017-09-17T07:04:28.142Z,10
2017-09-17T07:05:28.175Z,10
2017-09-17T07:06:28.173Z,10
2017-09-17T07:07:28.194Z,10
2017-09-17T07:08:28.230Z,10
2017-09-17T07:09:28.561Z,10
2017-09-17T07:10:28.240Z,10
2017-09-17T07:11:28.272Z,10
2017-09-17T07:12:27.954Z,10
2017-09-17T07:13:27.973Z,10
2017-09-17T07:14:27.979Z,10
2017-09-17T07:15:28.325Z,10
2017-09-17T07:16:28.066Z,10
2017-09-17T07:17:28.364Z,10
2017-09-17T07:18:28.054Z,10
2017-09-17T07:19:28.733Z,15
2017-09-17T07:20:28.100Z,15
2017-09-17T07:21:28.112Z,15
2017-09-17T07:22:28.554Z,10
2017-09-17T07:23:28.477Z,15
2017-09-17T07:24:27.833Z,15
2017-09-17T07:25:28.502Z,15
2017-09-17T07:26:28.864Z,15
2017-09-17T07:27:27.584Z,10
2017-09-17T07:28:28.760Z,10
2017-09-17T07:29:28.458Z,10
2017-09-17T07:30:28.610Z,5
2017-09-17T07:31:28.608Z,5
2017-09-17T07:32:28.299Z,5
2017-09-17T07:33:28.003Z,10
2017-09-17T07:34:28.010Z,10
2017-09-17T07:35:29.092Z,10
2017-09-17T07:36:28.782Z,10
2017-09-17T07:37:29.137Z,10
2017-09-17T07:38:29.172Z,10
2017-09-17T07:39:29.170Z,10
2017-09-17T07:40:28.842Z,10
2017-09-17T07:41:28.141Z,10
2017-09-17T07:42:28.834Z,10
2017-09-17T07:43:28.170Z,10
2017-09-17T07:44:28.505Z,15
2017-09-17T07:45:28.862Z,15
2017-09-17T07:46:28.548Z,15
2017-09-17T07:47:28.236Z,15
2017-09-17T07:48:29.130Z,15
2017-09-17T07:49:28.303Z,20
2017-09-17T07:50:28.300Z,15
2017-09-17T07:51:28.307Z,15
2017-09-17T07:52:28.981Z,15
2017-09-17T07:53:28.831Z,15
2017-09-17T07:54:29.467Z,15
2017-09-17T07:55:29.044Z,15
2017-09-17T07:56:29.372Z,15
2017-09-17T07:57:28.732Z,15
2017-09-17T07:58:29.094Z,15
2017-09-17T07:59:28.120Z,15
2017-09-17T08:00:29.257Z,20
2017-09-17T08:01:28.927Z,20
2017-09-17T08:02:29.282Z,20
2017-09-17T08:03:28.842Z,20
2017-09-17T08:04:28.578Z,20
2017-09-17T08:05:29.015Z,20
2017-09-17T08:06:28.257Z,15
2017-09-17T08:07:28.915Z,15
2017-09-17T08:08:28.994Z,15
2017-09-17T08:09:29.614Z,20
2017-09-17T08:10:29.003Z,20
2017-09-17T08:11:28.674Z,25
2017-09-17T08:12:28.813Z,20
2017-09-17T08:13:29.356Z,20
2017-09-17T08:14:28.393Z,20
2017-09-17T08:15:29.071Z,20
2017-09-17T08:16:28.434Z,20
2017-09-17T08:17:29.097Z,20
2017-09-17T08:18:29.600Z,20
2017-09-17T08:19:29.250Z,20
2017-09-17T08:20:29.262Z,25
2017-09-17T08:21:29.498Z,25
2017-09-17T08:22:29.632Z,25
2017-09-17T08:23:29.537Z,25
2017-09-17T08:24:29.898Z,20
2017-09-17T08:25:29.603Z,20
2017-09-17T08:26:29.266Z,15
2017-09-17T08:27:29.091Z,15
2017-09-17T08:28:29.303Z,10
2017-09-17T08:29:29.648Z,10
2017-09-17T08:30:29.331Z,10
2017-09-17T08:31:29.363Z,10
2017-09-17T08:32:29.371Z,5
2017-09-17T08:33:29.397Z,5
2017-09-17T08:34:29.881Z,5
2017-09-17T08:35:29.757Z,5
2017-09-17T08:36:29.456Z,5
2017-09-17T08:37:29.473Z,5
2017-09-17T08:38:29.817Z,5
2017-09-17T08:39:29.510Z,5
2017-09-17T08:40:29.843Z,5
2017-09-17T08:41:29.644Z,10
2017-09-17T08:42:30.217Z,10
2017-09-17T08:43:29.259Z,10
2017-09-17T08:44:29.609Z,10
2017-09-17T08:45:30.062Z,10
2017-09-17T08:46:29.640Z,10
2017-09-17T08:47:30.106Z,10
2017-09-17T08:48:29.770Z,10
2017-09-17T08:49:30.025Z,10
2017-09-17T08:50:30.038Z,10
2017-09-17T08:51:30.058Z,10
2017-09-17T08:52:30.087Z,10
2017-09-17T08:53:29.451Z,10
2017-09-17T08:54:30.121Z,10
2017-09-17T08:55:29.909Z,10
2017-09-17T08:56:30.159Z,10
2017-09-17T08:57:29.974Z,10
2017-09-17T08:58:29.867Z,10
2017-09-17T08:59:30.213Z,10
2017-09-17T09:00:29.998Z,10
2017-09-17T09:01:29.929Z,10
2017-09-17T09:02:30.323Z,10
2017-09-17T09:03:30.282Z,10
2017-09-17T09:04:29.993Z,10
2017-09-17T09:05:30.650Z,10
2017-09-17T09:06:30.123Z,10
2017-09-17T09:07:30.045Z,10
2017-09-17T09:08:30.063Z,10
2017-09-17T09:09:30.080Z,10
2017-09-17T09:10:30.510Z,10
2017-09-17T09:11:30.770Z,10
2017-09-17T09:12:30.442Z,10
2017-09-17T09:13:30.804Z,10
2017-09-17T09:14:30.197Z,10
2017-09-17T09:15:29.909Z,10
2017-09-17T09:16:30.239Z,10
2017-09-17T09:17:30.253Z,10
2017-09-17T09:18:30.907Z,10
2017-09-17T09:19:30.374Z,10
2017-09-17T09:20:30.631Z,10
2017-09-17T09:21:29.987Z,10
2017-09-17T09:22:30.361Z,10
2017-09-17T09:23:30.689Z,10
2017-09-17T09:24:30.372Z,10
2017-09-17T09:25:30.079Z,10
2017-09-17T09:26:30.177Z,10
2017-09-17T09:27:30.448Z,10
2017-09-17T09:28:30.780Z,10
2017-09-17T09:29:30.473Z,10
2017-09-17T09:30:30.828Z,10
2017-09-17T09:31:30.835Z,10
2017-09-17T09:32:30.547Z,10
2017-09-17T09:33:30.237Z,10
2017-09-17T09:34:31.357Z,10
2017-09-17T09:35:30.660Z,10
2017-09-17T09:36:30.305Z,10
2017-09-17T09:37:30.644Z,10
2017-09-17T09:38:30.335Z,10
2017-09-17T09:39:30.689Z,10
2017-09-17T09:40:30.363Z,10
2017-09-17T09:41:31.358Z,10
2017-09-17T09:42:30.737Z,10
2017-09-17T09:43:30.441Z,10
2017-09-17T09:44:30.781Z,10
2017-09-17T09:45:30.471Z,10
2017-09-17T09:46:30.841Z,15
2017-09-17T09:47:30.529Z,15
2017-09-17T09:48:30.879Z,15
2017-09-17T09:49:30.875Z,15
2017-09-17T09:50:31.230Z,15
2017-09-17T09:51:31.259Z,15
2017-09-17T09:52:30.936Z,15
2017-09-17T09:53:30.964Z,15
2017-09-17T09:54:30.983Z,15
2017-09-17T09:55:31.323Z,15
2017-09-17T09:56:31.666Z,15
2017-09-17T09:57:30.712Z,15
2017-09-17T09:58:31.065Z,15
2017-09-17T09:59:31.722Z,15
2017-09-17T10:00:30.802Z,15
2017-09-17T10:01:31.574Z,15
2017-09-17T10:02:31.783Z,15
2017-09-17T10:03:31.166Z,15
2017-09-17T10:04:31.188Z,15
2017-09-17T10:05:31.537Z,15
2017-09-17T10:06:31.214Z,10
2017-09-17T10:07:31.582Z,10
2017-09-17T10:08:31.596Z,10
2017-09-17T10:09:30.634Z,10
2017-09-17T10:10:30.978Z,10
2017-09-17T10:11:31.323Z,10
2017-09-17T10:12:31.174Z,15
2017-09-17T10:13:31.394Z,15
2017-09-17T10:14:31.394Z,15
2017-09-17T10:15:31.850Z,15
2017-09-17T10:16:31.406Z,15
2017-09-17T10:17:31.842Z,15
2017-09-17T10:18:31.483Z,15
2017-09-17T10:19:31.813Z,15
2017-09-17T10:20:31.846Z,20
2017-09-17T10:21:31.936Z,20
2017-09-17T10:22:31.885Z,20
2017-09-17T10:23:31.256Z,20
2017-09-17T10:24:31.282Z,15
2017-09-17T10:25:31.301Z,15
2017-09-17T10:26:31.328Z,15
2017-09-17T10:27:32.207Z,20
2017-09-17T10:28:31.685Z,20
2017-09-17T10:29:31.393Z,25
2017-09-17T10:30:31.416Z,25
2017-09-17T10:31:31.434Z,25
2017-09-17T10:32:32.157Z,30
2017-09-17T10:33:31.795Z,30
2017-09-17T10:34:31.852Z,30
2017-09-17T10:35:32.183Z,25
2017-09-17T10:36:31.966Z,25
2017-09-17T10:37:31.565Z,15
2017-09-17T10:38:31.778Z,20
2017-09-17T10:39:32.271Z,20
2017-09-17T10:40:31.976Z,20
2017-09-17T10:41:31.985Z,20
2017-09-17T10:42:32.636Z,15
2017-09-17T10:43:32.015Z,15
2017-09-17T10:44:32.369Z,20
2017-09-17T10:45:31.731Z,20
2017-09-17T10:46:31.751Z,20
2017-09-17T10:47:32.106Z,20
2017-09-17T10:48:32.132Z,20
2017-09-17T10:49:32.399Z,20
2017-09-17T10:50:32.814Z,20
2017-09-17T10:51:32.196Z,20
2017-09-17T10:52:32.563Z,20
2017-09-17T10:53:32.883Z,20
2017-09-17T10:54:32.907Z,20
2017-09-17T10:55:31.957Z,20
2017-09-17T10:56:32.723Z,20
2017-09-17T10:57:32.969Z,20
2017-09-17T10:58:33.145Z,20
2017-09-17T10:59:32.708Z,20
2017-09-17T11:00:32.725Z,20
2017-09-17T11:01:32.945Z,20
2017-09-17T11:02:32.121Z,20
2017-09-17T11:03:33.118Z,20
2017-09-17T11:04:32.478Z,20
2017-09-17T11:05:33.167Z,20
2017-09-17T11:06:32.521Z,20
2017-09-17T11:07:32.878Z,20
2017-09-17T11:08:32.885Z,20
2017-09-17T11:09:32.603Z,20
2017-09-17T11:10:33.263Z,20
2017-09-17T11:11:32.643Z,20
2017-09-17T11:12:32.669Z,20
2017-09-17T11:13:33.328Z,20
2017-09-17T11:14:32.385Z,20
2017-09-17T11:15:32.729Z,25
2017-09-17T11:16:32.752Z,25
2017-09-17T11:17:32.762Z,20
2017-09-17T11:18:33.117Z,20
2017-09-17T11:19:33.466Z,20
2017-09-17T11:20:33.298Z,20
2017-09-17T11:21:32.868Z,20
2017-09-17T11:22:32.826Z,20
2017-09-17T11:23:32.912Z,20
2017-09-17T11:24:32.929Z,20
2017-09-17T11:25:32.634Z,20
2017-09-17T11:26:33.614Z,20
2017-09-17T11:27:32.993Z,20
2017-09-17T11:28:33.029Z,20
2017-09-17T11:29:33.050Z,20
2017-09-17T11:30:33.064Z,20
2017-09-17T11:31:33.086Z,20
2017-09-17T11:32:33.771Z,20
2017-09-17T11:33:33.590Z,20
2017-09-17T11:34:33.158Z,20
2017-09-17T11:35:32.868Z,20
2017-09-17T11:36:32.565Z,20
2017-09-17T11:37:33.230Z,20
2017-09-17T11:38:33.260Z,20
2017-09-17T11:39:32.966Z,20
2017-09-17T11:40:32.978Z,20
2017-09-17T11:41:33.331Z,20
2017-09-17T11:42:33.675Z,20
2017-09-17T11:43:32.724Z,20
2017-09-17T11:44:33.540Z,20
2017-09-17T11:45:33.417Z,20
2017-09-17T11:46:33.772Z,20
2017-09-17T11:47:33.472Z,20
2017-09-17T11:48:33.809Z,15
2017-09-17T11:49:33.529Z,20
2017-09-17T11:50:33.536Z,15
2017-09-17T11:51:33.562Z,20
2017-09-17T11:52:33.578Z,15
2017-09-17T11:53:33.939Z,20
2017-09-17T11:54:33.303Z,20
2017-09-17T11:55:34.307Z,20
2017-09-17T11:56:34.006Z,15
2017-09-17T11:57:33.695Z,20
2017-09-17T11:58:34.054Z,20
2017-09-17T11:59:33.750Z,20
2017-09-17T12:00:33.121Z,15
2017-09-17T12:01:33.253Z,20
2017-09-17T12:02:34.155Z,20
2017-09-17T12:03:33.988Z,25
2017-09-17T12:04:33.668Z,25
2017-09-17T12:05:34.566Z,25
2017-09-17T12:06:34.380Z,25
2017-09-17T12:07:33.622Z,25
2017-09-17T12:08:33.967Z,25
2017-09-17T12:09:34.114Z,25
2017-09-17T12:10:33.695Z,30
2017-09-17T12:11:34.067Z,35
2017-09-17T12:12:34.402Z,35
2017-09-17T12:13:34.204Z,40
2017-09-17T12:14:34.117Z,40
2017-09-17T12:15:34.781Z,40
2017-09-17T12:16:34.701Z,40
2017-09-17T12:17:34.174Z,35
2017-09-17T12:18:33.881Z,35
2017-09-17T12:19:34.583Z,30
2017-09-17T12:20:34.264Z,35
2017-09-17T12:21:34.736Z,35
2017-09-17T12:22:34.623Z,40
2017-09-17T12:23:34.662Z,45
2017-09-17T12:24:35.163Z,50
2017-09-17T12:25:34.906Z,50
2017-09-17T12:26:35.099Z,50
2017-09-17T12:27:34.882Z,50
2017-09-17T12:28:34.778Z,50
2017-09-17T12:29:34.820Z,55
2017-09-17T12:30:35.153Z,55
2017-09-17T12:31:34.674Z,60
2017-09-17T12:32:34.891Z,60
2017-09-17T12:33:34.901Z,55
2017-09-17T12:34:34.285Z,55
2017-09-17T12:35:35.037Z,55
2017-09-17T12:36:35.303Z,55
2017-09-17T12:37:34.677Z,50
2017-09-17T12:38:35.030Z,50
2017-09-17T12:39:34.740Z,50
2017-09-17T12:40:34.757Z,50
2017-09-17T12:41:35.227Z,50
2017-09-17T12:42:35.132Z,50
2017-09-17T12:43:35.476Z,50
2017-09-17T12:44:34.861Z,50
2017-09-17T12:45:34.550Z,45
2017-09-17T12:46:35.231Z,40
2017-09-17T12:47:35.341Z,35
2017-09-17T12:48:35.407Z,35
2017-09-17T12:49:34.655Z,35
2017-09-17T12:50:35.009Z,40
2017-09-17T12:51:34.390Z,40
2017-09-17T12:52:35.389Z,40
2017-09-17T12:53:34.762Z,40
2017-09-17T12:54:35.752Z,40
2017-09-17T12:55:35.461Z,35
2017-09-17T12:56:35.811Z,30
2017-09-17T12:57:35.187Z,25
2017-09-17T12:58:35.214Z,25
2017-09-17T12:59:35.022Z,25
2017-09-17T13:00:34.937Z,25
2017-09-17T13:01:35.610Z,25
2017-09-17T13:02:35.640Z,20
2017-09-17T13:03:35.013Z,20
2017-09-17T13:04:35.395Z,15
2017-09-17T13:05:35.788Z,15
2017-09-17T13:06:35.839Z,15
2017-09-17T13:07:35.121Z,15
2017-09-17T13:08:35.978Z,15
2017-09-17T13:09:35.267Z,20
2017-09-17T13:10:35.904Z,20
2017-09-17T13:11:35.543Z,20
2017-09-17T13:12:35.249Z,20
2017-09-17T13:13:35.595Z,20
2017-09-17T13:14:36.278Z,25
2017-09-17T13:15:35.654Z,25
2017-09-17T13:16:35.686Z,25
2017-09-17T13:17:36.027Z,25
2017-09-17T13:18:35.733Z,25
2017-09-17T13:19:36.080Z,25
2017-09-17T13:20:35.783Z,25
2017-09-17T13:21:36.136Z,20
2017-09-17T13:22:35.190Z,20
2017-09-17T13:23:35.852Z,20
2017-09-17T13:24:36.208Z,20
2017-09-17T13:25:35.597Z,20
2017-09-17T13:26:36.654Z,20
2017-09-17T13:27:36.292Z,20
2017-09-17T13:28:35.758Z,25
2017-09-17T13:29:36.673Z,25
2017-09-17T13:30:36.362Z,25
2017-09-17T13:31:36.389Z,25
2017-09-17T13:32:36.216Z,30
2017-09-17T13:33:36.108Z,30
2017-09-17T13:34:36.473Z,35
2017-09-17T13:35:36.491Z,35
2017-09-17T13:36:36.258Z,40
2017-09-17T13:37:36.229Z,45
2017-09-17T13:38:36.187Z,45
2017-09-17T13:39:36.920Z,45
2017-09-17T13:40:36.310Z,50
2017-09-17T13:41:36.964Z,50
2017-09-17T13:42:36.683Z,50
2017-09-17T13:43:36.508Z,45
2017-09-17T13:44:36.731Z,45
2017-09-17T13:45:36.555Z,40
2017-09-17T13:46:36.451Z,45
2017-09-17T13:47:36.165Z,45
2017-09-17T13:48:36.174Z,45
2017-09-17T13:49:36.536Z,45
2017-09-17T13:50:35.922Z,45
2017-09-17T13:51:36.381Z,45
2017-09-17T13:52:35.965Z,40
2017-09-17T13:53:36.863Z,40
2017-09-17T13:54:37.077Z,40
2017-09-17T13:55:36.699Z,40
2017-09-17T13:56:36.389Z,40
2017-09-17T13:57:37.076Z,40
2017-09-17T13:58:37.421Z,40
2017-09-17T13:59:36.794Z,40
2017-09-17T14:00:36.514Z,45
2017-09-17T14:01:36.847Z,45
2017-09-17T14:02:36.547Z,45
2017-09-17T14:03:37.210Z,50
2017-09-17T14:04:37.526Z,50
2017-09-17T14:05:36.943Z,55
2017-09-17T14:06:36.661Z,50
2017-09-17T14:07:36.993Z,45
2017-09-17T14:08:37.801Z,35
2017-09-17T14:09:37.828Z,30
2017-09-17T14:10:36.769Z,25
2017-09-17T14:11:37.449Z,25
2017-09-17T14:12:36.823Z,25
2017-09-17T14:13:37.164Z,30
2017-09-17T14:14:37.606Z,30
2017-09-17T14:15:37.869Z,30
2017-09-17T14:16:37.434Z,25
2017-09-17T14:17:37.449Z,20
2017-09-17T14:18:37.450Z,20
2017-09-17T14:19:37.836Z,20
2017-09-17T14:20:37.656Z,20
2017-09-17T14:21:37.032Z,15
2017-09-17T14:22:37.722Z,15
2017-09-17T14:23:37.216Z,15
2017-09-17T14:24:37.199Z,15
2017-09-17T14:25:37.793Z,25
2017-09-17T14:26:37.501Z,20
2017-09-17T14:27:37.582Z,20
2017-09-17T14:28:37.553Z,20
2017-09-17T14:29:37.901Z,15
2017-09-17T14:30:37.974Z,15